Time;durP1;ratioP1;P1;durP2;ratioP2;P2;SDS_P1;SDS_P2;PMS_P1;PMS_P2;Temp;Humidity;BMP_temperature;BMP_pressure;BME280_temperature;BME280_humidity;BME280_pressure;Samples;Min_cycle;Max_cycle;Signal;HPM_P1;HPM_P2
2023/07/27 00:00:12;;;;;;;4.68;2.85;;;;;;;;;;4990890;28;20225;-87
2023/07/27 00:02:38;;;;;;;3.80;2.50;;;;;;;;;;4976355;28;20178;-87
2023/07/27 00:05:06;;;;;;;4.85;3.10;;;13.10;99.90;;;;;;4990738;28;20206;-87
2023/07/27 00:07:32;;;;;;;4.18;3.20;;;;;;;;;;4958696;28;20244;-88
2023/07/27 00:10:00;;;;;;;3.55;2.67;;;;;;;;;;4990730;28;20632;-87
2023/07/27 00:12:26;;;;;;;4.30;2.83;;;;;;;;;;4991043;28;20631;-88
2023/07/27 00:14:52;;;;;;;3.10;2.63;;;;;;;;;;4990807;28;20189;-88
2023/07/27 00:17:18;;;;;;;2.95;2.22;;;;;;;;;;4990769;28;20214;-89
2023/07/27 00:19:44;;;;;;;2.60;2.17;;;13.10;99.90;;;;;;4974747;28;20187;-87
2023/07/27 00:22:12;;;;;;;4.28;2.67;;;;;;;;;;4974366;28;20179;-89
2023/07/27 00:24:40;;;;;;;5.30;3.30;;;13.00;99.90;;;;;;4975119;28;20640;-89
2023/07/27 00:27:06;;;;;;;2.92;2.33;;;;;;;;;;4958821;28;20621;-89
2023/07/27 00:29:32;;;;;;;3.08;2.08;;;;;;;;;;4975005;28;20242;-89
2023/07/27 00:32:01;;;;;;;1.63;1.52;;;12.90;99.90;;;;;;4990454;28;20635;-89
2023/07/27 00:34:27;;;;;;;1.75;1.65;;;;;;;;;;4958711;28;20182;-87
2023/07/27 00:36:53;;;;;;;1.90;1.48;;;;;;;;;;4974445;28;20285;-88
2023/07/27 00:39:19;;;;;;;1.50;1.40;;;;;;;;;;4989981;28;20272;-89
2023/07/27 00:41:45;;;;;;;1.58;1.40;;;;;;;;;;4974519;28;20213;-87
2023/07/27 00:44:11;;;;;;;2.38;1.58;;;;;;;;;;4974259;28;20202;-88
2023/07/27 00:46:46;;;;;;;2.58;1.80;;;12.90;99.90;;;;;;4989954;28;20248;-89
2023/07/27 00:49:12;;;;;;;2.83;1.67;;;;;;;;;;4973012;28;20181;-88
2023/07/27 00:51:42;;;;;;;2.20;1.70;;;12.90;99.90;;;;;;4989744;28;20222;-89
2023/07/27 00:54:10;;;;;;;1.95;1.50;;;12.80;99.90;;;;;;4973394;28;21337;-89
2023/07/27 00:56:38;;;;;;;3.15;1.70;;;12.80;99.90;;;;;;4973671;28;20216;-87
2023/07/27 00:59:04;;;;;;;2.67;1.98;;;12.80;99.90;;;;;;4973271;28;20259;-88
2023/07/27 01:01:34;;;;;;;3.50;1.73;;;12.80;99.90;;;;;;4973991;28;20186;-88
2023/07/27 01:04:03;;;;;;;4.03;1.73;;;;;;;;;;4973122;28;20265;-88
2023/07/27 01:06:29;;;;;;;2.38;2.00;;;;;;;;;;4989762;28;20210;-88
2023/07/27 01:08:56;;;;;;;2.28;1.77;;;12.70;99.90;;;;;;4973539;28;20179;-88
2023/07/27 01:11:40;;;;;;;1.25;1.15;;;12.70;99.90;;;;;;4973287;28;20186;-88
2023/07/27 01:14:23;;;;;;;1.30;1.20;;;12.70;99.90;;;;;;4972934;28;20189;-88
2023/07/27 01:17:17;;;;;;;1.73;1.48;;;12.70;99.90;;;;;;4989763;28;20214;-89
2023/07/27 01:20:20;;;;;;;5.15;1.33;;;12.60;99.90;;;;;;4967986;28;20679;-88
2023/07/27 01:22:46;;;;;;;1.42;1.33;;;;;;;;;;4974525;28;20179;-88
2023/07/27 01:25:49;;;;;;;1.65;1.42;;;12.60;99.90;;;;;;4988995;28;20179;-88
2023/07/27 01:28:42;;;;;;;1.30;1.13;;;12.70;99.90;;;;;;4973037;28;20672;-89
2023/07/27 01:31:41;;;;;;;2.83;1.63;;;12.70;99.90;;;;;;5013838;28;20170;-88
2023/07/27 01:34:29;;;;;;;1.85;1.70;;;12.60;99.90;;;;;;4982616;28;20739;-90
2023/07/27 01:37:05;;;;;;;1.95;1.60;;;12.70;99.90;;;;;;4974651;28;20221;-89
2023/07/27 01:40:01;;;;;;;2.47;1.70;;;12.70;99.90;;;;;;4974215;28;20688;-89
2023/07/27 01:42:31;;;;;;;1.77;1.65;;;12.70;99.90;;;;;;4974622;28;20189;-90
2023/07/27 01:45:03;;;;;;;2.33;1.77;;;12.70;99.90;;;;;;4974876;28;20660;-89
2023/07/27 01:47:30;;;;;;;1.98;1.60;;;12.70;99.90;;;;;;4974238;28;20186;-88
2023/07/27 01:49:57;;;;;;;2.25;1.80;;;12.70;99.90;;;;;;4974084;28;20187;-88
2023/07/27 01:52:25;;;;;;;1.88;1.67;;;12.70;99.90;;;;;;4974193;28;20174;-89
2023/07/27 01:54:51;;;;;;;2.40;1.83;;;;;;;;;;4990568;28;20542;-89
2023/07/27 01:57:25;;;;;;;1.80;1.60;;;12.70;99.90;;;;;;4958552;28;20305;-89
2023/07/27 01:59:53;;;;;;;2.55;1.98;;;12.70;99.90;;;;;;4974462;28;20550;-89
2023/07/27 02:02:19;;;;;;;2.08;1.60;;;;;;;;;;4976314;28;20195;-90
2023/07/27 02:04:52;;;;;;;3.60;2.35;;;12.70;99.90;;;;;;4977994;28;20178;-91
2023/07/27 02:07:18;;;;;;;3.92;2.47;;;;;;;;;;4978029;28;20593;-89
2023/07/27 02:10:02;;;;;;;2.38;2.17;;;;;;;;;;4993993;28;20620;-91
2023/07/27 02:12:44;;;;;;;6.28;2.30;;;12.80;99.90;;;;;;4992824;28;20277;-89
2023/07/27 02:15:45;;;;;;;2.15;1.90;;;12.80;99.90;;;;;;4976326;28;20178;-91
2023/07/27 02:18:30;;;;;;;2.30;2.00;;;12.80;99.90;;;;;;4977340;28;20415;-91
2023/07/27 02:21:45;;;;;;;2.95;2.20;;;12.80;99.90;;;;;;4977557;28;20225;-90
2023/07/27 02:24:14;;;;;;;2.08;1.63;;;12.80;99.90;;;;;;4976164;28;20229;-89
2023/07/27 02:26:45;;;;;;;3.80;2.00;;;12.70;99.90;;;;;;4960661;28;20182;-89
2023/07/27 02:29:11;;;;;;;2.33;1.88;;;;;;;;;;4976754;28;20225;-89
2023/07/27 02:32:18;;;;;;;2.65;1.90;;;12.70;99.90;;;;;;4993700;28;20631;-90
2023/07/27 02:34:44;;;;;;;1.77;1.65;;;;;;;;;;4974136;28;20558;-89
2023/07/27 02:37:10;;;;;;;3.35;1.75;;;;;;;;;;4992788;28;20301;-90
2023/07/27 02:39:38;;;;;;;1.75;1.50;;;;;;;;;;4992670;28;20683;-90
2023/07/27 02:42:27;;;;;;;2.58;2.13;;;12.70;99.90;;;;;;4976445;28;20245;-91
2023/07/27 02:44:58;;;;;;;3.08;1.92;;;12.70;99.90;;;;;;4966245;28;20194;-90
2023/07/27 02:47:24;;;;;;;2.35;2.05;;;;;;;;;;4976088;28;20183;-90
2023/07/27 02:56:51;;;;;;;2.67;2.20;;;12.80;99.90;;;;;;4908054;28;20225;-91
2023/07/27 02:59:17;;;;;;;3.15;1.98;;;;;;;;;;4960385;28;20214;-90
2023/07/27 03:02:21;;;;;;;;;;;;;;;;;;;;;
2023/07/27 03:04:48;;;;;;;3.40;1.77;;;;;;;;;;4940122;28;20196;-90
2023/07/27 03:07:14;;;;;;;3.42;1.60;;;;;;;;;;4992037;28;20213;-89
2023/07/27 03:09:45;;;;;;;2.30;1.90;;;;;;;;;;4976144;28;20187;-90
2023/07/27 03:12:12;;;;;;;2.85;1.83;;;12.70;99.90;;;;;;4991907;28;20182;-91
2023/07/27 03:14:59;;;;;;;;;;;;;;;;;;;;;
2023/07/27 03:17:34;;;;;;;4.45;1.92;;;12.70;99.90;;;;;;4956018;28;20226;-90
2023/07/27 03:20:00;;;;;;;2.17;1.95;;;;;;;;;;4976236;28;20185;-89
2023/07/27 03:22:26;;;;;;;2.08;1.70;;;;;;;;;;4968151;28;20186;-90
2023/07/27 03:24:52;;;;;;;2.20;1.95;;;;;;;;;;4991913;28;20546;-89
2023/07/27 03:27:23;;;;;;;4.25;2.05;;;12.60;99.90;;;;;;4975188;28;20214;-90
2023/07/27 03:29:56;;;;;;;4.85;2.65;;;12.60;99.90;;;;;;4960175;28;20197;-92
2023/07/27 03:32:26;;;;;;;2.88;1.50;;;12.60;99.90;;;;;;4986243;28;20189;-88
2023/07/27 03:34:52;;;;;;;3.58;2.00;;;;;;;;;;4954859;28;20577;-90
2023/07/27 03:37:19;;;;;;;4.22;2.05;;;;;;;;;;4970529;28;20214;-89
2023/07/27 03:39:49;;;;;;;4.10;1.67;;;12.40;99.90;;;;;;4972252;28;20345;-92
2023/07/27 03:42:15;;;;;;;1.80;1.50;;;;;;;;;;4976915;28;20191;-91
2023/07/27 03:44:42;;;;;;;1.77;1.48;;;;;;;;;;4959346;28;20265;-89
2023/07/27 03:47:26;;;;;;;1.85;1.58;;;12.60;99.90;;;;;;4973275;28;20252;-88
2023/07/27 03:49:52;;;;;;;3.47;2.05;;;;;;;;;;4976087;28;20186;-91
2023/07/27 03:52:17;;;;;;;2.35;1.85;;;12.70;99.90;;;;;;4977364;28;20209;-91
2023/07/27 03:55:20;;;;;;;;;;;;;;;;;;;;;
2023/07/27 03:58:07;;;;;;;2.13;1.77;;;12.70;99.90;;;;;;4984714;28;20307;-92
2023/07/27 04:01:19;;;;;;;4.07;1.92;;;12.70;99.90;;;;;;4966421;28;20190;-94
2023/07/27 04:04:06;;;;;;;6.30;2.08;;;12.60;99.90;;;;;;4882855;29;20265;-94
2023/07/27 04:07:10;;;;;;;3.25;2.03;;;12.60;99.90;;;;;;4894416;29;20217;-94
2023/07/27 04:10:17;;;;;;;;;;;;;;;;;;;;;
2023/07/27 04:13:12;;;;;;;3.10;2.00;;;12.70;99.90;;;;;;4909707;28;20234;-91
2023/07/27 04:15:40;;;;;;;2.17;1.67;;;12.70;99.90;;;;;;4965159;28;20194;-92
2023/07/27 04:18:06;;;;;;;2.03;1.50;;;12.70;99.90;;;;;;4985087;28;20213;-88
2023/07/27 04:21:10;;;;;;;;;;;;;;;;;;;;;
2023/07/27 04:30:30;;;;;;;4.25;1.88;;;12.70;99.90;;;;;;5401812;23;20253;-92
2023/07/27 04:34:18;;;;;;;3.15;1.90;;;12.80;99.90;;;;;;4949429;28;20366;-90
2023/07/27 04:51:11;;;;;;;4.13;2.20;;;13.00;99.90;;;;;;5322055;23;20253;-94
2023/07/27 04:54:12;;;;;;;;;;;;;;;;;;;;;
2023/07/27 04:57:40;;;;;;;;;;;;;;;;;;;;;
2023/07/27 05:00:18;;;;;;;4.55;1.95;;;13.20;99.90;;;;;;4962816;28;20191;-95
2023/07/27 05:05:56;;;;;;;2.50;1.92;;;13.30;99.90;;;;;;4997148;28;20236;-96
2023/07/27 05:08:35;;;;;;;;;;;;;;;;;;;;;
2023/07/27 05:11:17;;;;;;;1.80;1.65;;;13.30;99.90;;;;;;4977327;28;20273;-95
2023/07/27 05:18:01;;;;;;;2.70;1.83;;;13.40;99.90;;;;;;5001058;28;20276;-96
2023/07/27 05:20:36;;;;;;;2.03;1.77;;;13.40;99.90;;;;;;4992248;28;20243;-95
2023/07/27 05:23:27;;;;;;;2.10;1.75;;;13.50;99.90;;;;;;4963471;28;20197;-95
2023/07/27 05:26:45;;;;;;;3.38;2.15;;;13.40;99.90;;;;;;4966358;28;20210;-95
2023/07/27 05:29:20;;;;;;;2.28;1.95;;;13.40;99.90;;;;;;4984206;28;20190;-96
2023/07/27 05:32:44;;;;;;;;;;;;;;;;;;;;;
2023/07/27 05:39:09;;;;;;;2.30;1.75;;;13.50;99.90;;;;;;4975192;28;20224;-95
2023/07/27 05:45:28;;;;;;;4.22;2.33;;;13.50;99.90;;;;;;4950812;29;20276;-93
2023/07/27 05:48:45;;;;;;;2.25;1.98;;;13.70;99.90;;;;;;4944729;29;20252;-95
2023/07/27 05:51:51;;;;;;;1.83;1.63;;;13.70;99.90;;;;;;4946910;28;20234;-94
2023/07/27 05:54:56;;;;;;;;;;;;;;;;;;;;;
2023/07/27 06:00:37;;;;;;;2.85;2.03;;;;;;;;;;4972394;29;20241;-93
2023/07/27 06:03:21;;;;;;;;;;;;;;;;;;;;;
2023/07/27 06:09:06;;;;;;;7.30;2.75;;;;;;;;;;4958960;28;20195;-94
2023/07/27 06:12:02;;;;;;;2.85;1.98;;;14.30;99.90;;;;;;4969124;28;20182;-95
2023/07/27 06:14:54;;;;;;;2.50;2.10;;;14.40;99.90;;;;;;4960863;28;20175;-95
2023/07/27 06:17:27;;;;;;;2.55;2.10;;;14.40;99.90;;;;;;4951075;28;20258;-94
2023/07/27 06:19:56;;;;;;;2.15;1.77;;;14.50;99.90;;;;;;4962711;28;20178;-89
2023/07/27 06:26:50;;;;;;;2.47;2.28;;;15.00;99.90;;;;;;4903903;29;20189;-93
2023/07/27 06:30:08;;;;;;;2.58;1.80;;;15.20;99.90;;;;;;4890737;29;20190;-93
2023/07/27 06:51:10;;;;;;;;;;;;;;;;;;;;;
2023/07/27 06:54:02;;;;;;;1.65;1.33;;;15.10;99.90;;;;;;4649626;30;20198;-91
2023/07/27 06:56:36;;;;;;;2.00;1.60;;;15.20;99.90;;;;;;4746551;29;20301;-93
2023/07/27 06:59:23;;;;;;;5.40;1.77;;;;;;;;;;4918626;29;20196;-90
2023/07/27 07:01:48;;;;;;;1.73;1.50;;;;;;;;;;4977656;28;20782;-90
2023/07/27 07:04:17;;;;;;;2.92;1.50;;;;;;;;;;4977059;28;20178;-91
2023/07/27 07:06:48;;;;;;;4.05;2.00;;;15.40;99.90;;;;;;4976643;28;20182;-90
2023/07/27 07:09:14;;;;;;;3.30;2.33;;;;;;;;;;4975027;28;20237;-91
2023/07/27 07:11:42;;;;;;;3.33;1.98;;;15.60;99.90;;;;;;4977184;28;20273;-92
2023/07/27 07:14:11;;;;;;;3.90;1.92;;;15.90;99.90;;;;;;4974063;28;20703;-92
2023/07/27 07:16:37;;;;;;;1.92;1.08;;;;;;;;;;4970165;28;20174;-92
2023/07/27 07:19:14;;;;;;;3.33;1.50;;;16.00;99.90;;;;;;4976580;28;20186;-92
2023/07/27 07:21:42;;;;;;;2.33;1.35;;;16.00;99.90;;;;;;4970404;28;20197;-92
2023/07/27 07:24:11;;;;;;;1.20;1.10;;;16.10;99.90;;;;;;4960222;28;20201;-92
2023/07/27 07:26:39;;;;;;;1.27;1.00;;;;;;;;;;4970605;28;20182;-92
2023/07/27 07:29:07;;;;;;;1.45;1.05;;;;;;;;;;4976507;28;20639;-92
2023/07/27 07:31:35;;;;;;;1.02;0.90;;;;;;;;;;4976876;28;20262;-92
2023/07/27 07:34:01;;;;;;;1.27;0.80;;;;;;;;;;4976317;28;20601;-91
2023/07/27 07:36:36;;;;;;;1.75;1.27;;;16.20;99.90;;;;;;4976119;28;20270;-92
2023/07/27 07:39:02;;;;;;;1.90;1.00;;;16.50;99.90;;;;;;4973163;28;20182;-92
2023/07/27 07:41:28;;;;;;;1.73;1.35;;;;;;;;;;4968669;28;20250;-91
2023/07/27 07:43:57;;;;;;;3.28;1.02;;;;;;;;;;4976133;28;20540;-91
2023/07/27 07:46:25;;;;;;;1.80;0.90;;;16.40;99.90;;;;;;4976040;28;20237;-91
2023/07/27 07:48:51;;;;;;;1.65;1.20;;;;;;;;;;4987817;28;20627;-90
2023/07/27 07:51:18;;;;;;;1.48;1.27;;;16.30;99.90;;;;;;4989347;28;20655;-91
2023/07/27 07:53:44;;;;;;;3.53;2.28;;;;;;;;;;4979416;28;20178;-90
2023/07/27 07:56:15;;;;;;;5.35;2.05;;;16.40;99.90;;;;;;4979792;28;20586;-91
2023/07/27 07:58:41;;;;;;;3.45;1.85;;;16.80;99.90;;;;;;4978969;28;20551;-91
2023/07/27 08:01:07;;;;;;;2.28;1.85;;;;;;;;;;4978793;28;20174;-91
2023/07/27 08:03:33;;;;;;;1.92;1.30;;;16.80;99.90;;;;;;4985629;28;20189;-90
2023/07/27 08:06:01;;;;;;;5.15;2.45;;;16.80;99.90;;;;;;4996701;28;20309;-91
2023/07/27 08:08:27;;;;;;;2.33;1.27;;;;;;;;;;5001316;28;20188;-91
2023/07/27 08:11:03;;;;;;;1.23;0.95;;;16.70;99.90;;;;;;5001519;28;20210;-91
2023/07/27 08:13:30;;;;;;;3.58;1.55;;;17.00;99.90;;;;;;4994761;28;20249;-89
2023/07/27 08:15:56;;;;;;;2.42;1.58;;;;;;;;;;5002325;28;20193;-91
2023/07/27 08:18:22;;;;;;;3.05;1.75;;;;;;;;;;5002634;28;20264;-91
2023/07/27 08:21:03;;;;;;;2.28;2.00;;;17.10;99.90;;;;;;5002675;28;20193;-90
2023/07/27 08:23:29;;;;;;;2.65;1.60;;;;;;;;;;5002993;28;20166;-89
2023/07/27 08:25:58;;;;;;;2.95;2.47;;;17.20;99.90;;;;;;5002502;28;20166;-89
2023/07/27 08:28:30;;;;;;;2.17;1.80;;;17.00;99.90;;;;;;5000005;28;20177;-89
2023/07/27 08:30:56;;;;;;;3.75;2.63;;;;;;;;;;4999970;28;20170;-90
2023/07/27 08:33:23;;;;;;;2.72;1.92;;;;;;;;;;5002118;28;20177;-90
2023/07/27 08:35:49;;;;;;;4.60;2.00;;;17.20;99.90;;;;;;5002595;28;20178;-90
2023/07/27 08:38:15;;;;;;;7.80;3.33;;;;;;;;;;5002342;28;20220;-91
2023/07/27 08:40:55;;;;;;;5.70;2.70;;;17.40;99.90;;;;;;5002527;28;20162;-90
2023/07/27 08:43:21;;;;;;;3.95;2.30;;;17.60;99.90;;;;;;4994488;28;20200;-93
2023/07/27 08:45:49;;;;;;;5.65;1.90;;;17.80;99.90;;;;;;5006853;28;20229;-93
2023/07/27 08:48:16;;;;;;;2.95;2.50;;;;;;;;;;4987049;28;20181;-90
2023/07/27 08:50:46;;;;;;;2.92;2.28;;;17.90;99.90;;;;;;4980735;28;20302;-91
2023/07/27 08:53:12;;;;;;;3.47;2.22;;;17.60;99.90;;;;;;4962047;28;20549;-90
2023/07/27 08:55:39;;;;;;;6.20;3.13;;;17.40;99.90;;;;;;4960235;29;20183;-90
2023/07/27 08:58:06;;;;;;;4.50;2.72;;;17.30;99.90;;;;;;4975522;28;20207;-90
2023/07/27 09:00:33;;;;;;;4.03;2.67;;;;;;;;;;4951804;29;20187;-89
2023/07/27 09:02:59;;;;;;;6.25;2.42;;;17.50;99.90;;;;;;4970931;29;20207;-90
2023/07/27 09:05:45;;;;;;;3.00;2.15;;;17.90;99.90;;;;;;4987628;28;20190;-91
2023/07/27 09:08:13;;;;;;;3.88;2.63;;;17.90;99.90;;;;;;4983419;28;20178;-91
2023/07/27 09:10:50;;;;;;;4.40;2.90;;;17.90;99.90;;;;;;4966643;28;20245;-90
2023/07/27 09:13:16;;;;;;;3.60;2.60;;;;;;;;;;4988697;28;20187;-91
2023/07/27 09:15:50;;;;;;;5.90;2.60;;;18.00;99.90;;;;;;4973307;29;20254;-91
2023/07/27 09:18:26;;;;;;;5.88;3.42;;;18.20;99.90;;;;;;4988829;28;20297;-90
2023/07/27 09:21:15;;;;;;;3.95;2.83;;;18.60;99.90;;;;;;4970941;29;20190;-91
2023/07/27 09:23:41;;;;;;;2.42;2.22;;;;;;;;;;4955155;28;20269;-90
2023/07/27 09:26:07;;;;;;;2.38;1.90;;;;;;;;;;4967798;28;20444;-90
2023/07/27 09:28:33;;;;;;;2.20;1.88;;;;;;;;;;4962361;29;20214;-92
2023/07/27 09:31:02;;;;;;;4.60;2.70;;;18.50;99.90;;;;;;4957516;29;20278;-89
2023/07/27 09:33:28;;;;;;;5.00;2.55;;;18.50;99.90;;;;;;4976314;28;20181;-91
2023/07/27 09:36:06;;;;;;;;;;;;;;;;;;;;;
2023/07/27 09:38:32;;;;;;;2.10;1.75;;;;;;;;;;4980177;28;20201;-89
2023/07/27 09:41:05;;;;;;;2.10;1.58;;;18.50;99.90;;;;;;4954920;29;20286;-89
2023/07/27 09:43:37;;;;;;;4.03;2.17;;;18.50;99.90;;;;;;4957588;28;20205;-88
2023/07/27 09:46:04;;;;;;;2.97;2.20;;;;;;;;;;4957593;28;20190;-89
2023/07/27 09:48:30;;;;;;;2.55;1.60;;;18.50;99.90;;;;;;4974847;28;20237;-89
2023/07/27 09:50:58;;;;;;;2.45;1.52;;;19.50;99.90;;;;;;4968038;28;20272;-89
2023/07/27 09:53:26;;;;;;;1.67;1.58;;;19.00;99.90;;;;;;4976985;28;20177;-89
2023/07/27 09:55:53;;;;;;;2.42;1.83;;;;;;;;;;4974516;28;20232;-90
2023/07/27 09:58:21;;;;;;;2.08;1.70;;;18.90;99.90;;;;;;4993290;28;20225;-90
2023/07/27 10:00:47;;;;;;;4.03;1.45;;;;;;;;;;4974801;28;20226;-89
2023/07/27 10:03:13;;;;;;;2.33;1.45;;;19.00;99.90;;;;;;4998395;28;20181;-88
2023/07/27 10:05:40;;;;;;;2.42;1.38;;;19.00;99.90;;;;;;5008510;28;20263;-89
2023/07/27 10:08:07;;;;;;;3.22;1.70;;;19.30;99.90;;;;;;4975824;28;20640;-91
2023/07/27 10:10:32;;;;;;;1.48;1.27;;;19.50;99.90;;;;;;4975122;28;20270;-91
2023/07/27 10:13:04;;;;;;;2.60;1.67;;;19.20;99.90;;;;;;4991728;28;20221;-87
2023/07/27 10:15:30;;;;;;;1.67;1.55;;;;;;;;;;4974501;28;20181;-91
2023/07/27 10:18:01;;;;;;;3.03;1.73;;;19.30;99.90;;;;;;4990894;28;20284;-90
2023/07/27 10:20:31;;;;;;;3.83;1.30;;;19.50;99.90;;;;;;4987055;28;20201;-91
2023/07/27 10:23:20;;;;;;;2.05;1.33;;;19.60;99.90;;;;;;4975564;28;20183;-91
2023/07/27 10:26:01;;;;;;;2.38;1.23;;;19.90;99.90;;;;;;4977792;28;20183;-91
2023/07/27 10:28:36;;;;;;;2.42;1.15;;;20.00;99.90;;;;;;4990070;28;20378;-92
2023/07/27 10:31:32;;;;;;;1.65;1.30;;;20.00;99.90;;;;;;4998360;28;20184;-91
2023/07/27 10:34:08;;;;;;;2.67;1.23;;;19.90;97.90;;;;;;4967296;28;20191;-96
2023/07/27 10:36:57;;;;;;;1.20;0.95;;;21.60;99.90;;;;;;4995567;28;20208;-96
2023/07/27 10:39:30;;;;;;;0.77;0.77;;;19.70;97.00;;;;;;5000603;28;20213;-92
2023/07/27 10:42:03;;;;;;;2.78;1.20;;;19.60;97.70;;;;;;4978931;28;20177;-92
2023/07/27 10:44:46;;;;;;;1.55;1.45;;;19.80;97.90;;;;;;4990862;28;20301;-92
2023/07/27 10:47:21;;;;;;;2.08;1.17;;;19.80;98.50;;;;;;4997510;28;20186;-91
2023/07/27 10:49:49;;;;;;;2.10;1.35;;;20.10;96.40;;;;;;4985217;28;20181;-91
2023/07/27 10:52:17;;;;;;;2.28;1.10;;;20.30;96.40;;;;;;4987443;28;20178;-92
2023/07/27 10:54:44;;;;;;;1.42;1.27;;;20.30;96.70;;;;;;4985372;28;20182;-90
2023/07/27 10:57:12;;;;;;;1.85;1.13;;;20.20;97.20;;;;;;4981413;28;20216;-90
2023/07/27 10:59:41;;;;;;;2.92;1.48;;;20.50;95.40;;;;;;4979539;28;20186;-91
2023/07/27 11:02:17;;;;;;;3.63;1.20;;;20.00;92.80;;;;;;4962090;28;20186;-91
2023/07/27 11:04:43;;;;;;;2.65;1.52;;;20.50;92.70;;;;;;4977570;28;20210;-89
2023/07/27 11:07:10;;;;;;;2.10;1.52;;;20.70;91.80;;;;;;4963880;28;20206;-91
2023/07/27 11:09:37;;;;;;;1.65;1.38;;;20.50;92.10;;;;;;4984874;28;20182;-91
2023/07/27 11:12:06;;;;;;;2.45;1.40;;;20.50;92.80;;;;;;4985159;28;20179;-90
2023/07/27 11:14:32;;;;;;;2.92;1.40;;;;;;;;;;4983901;28;20189;-91
2023/07/27 11:16:58;;;;;;;2.67;1.40;;;20.60;92.40;;;;;;4998290;28;20290;-90
2023/07/27 11:19:26;;;;;;;2.00;1.50;;;20.60;91.40;;;;;;4983141;28;20618;-89
2023/07/27 11:21:53;;;;;;;2.30;1.90;;;21.10;92.50;;;;;;5001766;28;20193;-90
2023/07/27 11:24:20;;;;;;;1.88;1.70;;;;;;;;;;4981222;28;20183;-90
2023/07/27 11:26:46;;;;;;;3.45;1.58;;;20.40;90.30;;;;;;4962301;28;20206;-90
2023/07/27 11:29:12;;;;;;;2.20;1.38;;;;;;;;;;4980116;28;20182;-89
2023/07/27 11:31:38;;;;;;;3.35;1.80;;;;;;;;;;4996033;28;20669;-90
2023/07/27 11:34:04;;;;;;;1.60;1.20;;;20.10;92.00;;;;;;4995354;28;20627;-90
2023/07/27 11:36:31;;;;;;;3.10;1.58;;;20.00;92.20;;;;;;4977457;28;20603;-89
2023/07/27 11:38:58;;;;;;;2.63;1.75;;;20.00;92.60;;;;;;4977449;28;20225;-90
2023/07/27 11:41:30;;;;;;;1.67;1.35;;;21.00;94.50;;;;;;4979846;28;20201;-90
2023/07/27 11:43:57;;;;;;;4.18;1.52;;;19.80;90.80;;;;;;4997132;28;20530;-89
2023/07/27 11:46:27;;;;;;;3.17;1.73;;;19.80;91.60;;;;;;4979070;28;20178;-90
2023/07/27 11:48:56;;;;;;;1.95;1.65;;;19.80;93.50;;;;;;4976409;28;20548;-90
2023/07/27 11:51:23;;;;;;;1.95;1.55;;;20.10;93.40;;;;;;4995679;28;20249;-89
2023/07/27 11:53:49;;;;;;;3.55;1.67;;;;;;;;;;4959696;28;20277;-89
2023/07/27 11:56:15;;;;;;;1.80;1.40;;;;;;;;;;4993363;28;20593;-89
2023/07/27 11:58:42;;;;;;;1.48;1.20;;;20.30;88.50;;;;;;4974718;28;20297;-89
2023/07/27 12:01:09;;;;;;;3.25;1.75;;;20.30;90.00;;;;;;4993486;28;20681;-88
2023/07/27 12:03:38;;;;;;;2.15;1.70;;;20.10;90.60;;;;;;4959737;28;20183;-89
2023/07/27 12:06:04;;;;;;;1.50;1.40;;;20.30;91.60;;;;;;4975673;28;20558;-89
2023/07/27 12:08:36;;;;;;;2.45;1.65;;;20.00;91.80;;;;;;4983832;28;20225;-89
2023/07/27 12:11:02;;;;;;;2.78;1.95;;;;;;;;;;5000877;28;20174;-92
2023/07/27 12:13:34;;;;;;;1.40;1.30;;;18.60;90.90;;;;;;4996097;28;20186;-95
2023/07/27 12:16:06;;;;;;;2.42;1.17;;;20.60;90.80;;;;;;4976754;28;20185;-94
2023/07/27 12:18:32;;;;;;;1.65;1.20;;;;;;;;;;4976501;28;20214;-94
2023/07/27 12:20:59;;;;;;;1.98;1.65;;;20.70;92.20;;;;;;4991666;28;20190;-93
2023/07/27 12:23:25;;;;;;;3.45;1.40;;;20.90;94.00;;;;;;4994516;28;20280;-93
2023/07/27 12:25:53;;;;;;;2.45;1.50;;;20.50;87.90;;;;;;4995068;28;20206;-91
2023/07/27 12:28:22;;;;;;;1.73;1.05;;;20.50;88.80;;;;;;4978448;28;20182;-94
2023/07/27 12:30:49;;;;;;;1.35;1.15;;;20.50;84.90;;;;;;4995872;28;20182;-96
2023/07/27 12:33:15;;;;;;;1.20;1.10;;;;;;;;;;4977583;28;20175;-92
2023/07/27 12:35:41;;;;;;;2.05;1.27;;;;;;;;;;4994188;28;20269;-94
2023/07/27 12:38:07;;;;;;;1.38;1.15;;;20.60;86.40;;;;;;4959327;28;20202;-88
2023/07/27 12:40:33;;;;;;;1.83;1.40;;;;;;;;;;4974314;28;20182;-91
2023/07/27 12:42:59;;;;;;;1.77;1.48;;;;;;;;;;4990617;28;20181;-90
2023/07/27 12:45:26;;;;;;;3.03;1.40;;;;;;;;;;4977401;28;20593;-90
2023/07/27 12:47:53;;;;;;;2.05;1.25;;;;;;;;;;4995482;28;20178;-90
2023/07/27 12:50:19;;;;;;;2.10;1.40;;;20.30;83.90;;;;;;4994658;28;20238;-89
2023/07/27 12:52:45;;;;;;;1.52;1.27;;;;;;;;;;4974687;28;20514;-89
2023/07/27 12:55:14;;;;;;;1.75;1.40;;;;;;;;;;4960403;28;20205;-91
2023/07/27 12:57:41;;;;;;;2.25;1.40;;;;;;;;;;4995542;28;20202;-87
2023/07/27 13:00:08;;;;;;;1.95;1.10;;;19.60;89.10;;;;;;4993678;28;20197;-88
2023/07/27 13:02:37;;;;;;;1.35;1.17;;;19.40;87.70;;;;;;4975694;28;20181;-89
2023/07/27 13:05:03;;;;;;;1.40;1.10;;;19.40;88.30;;;;;;4992685;28;20233;-89
2023/07/27 13:07:29;;;;;;;6.47;1.25;;;19.40;85.10;;;;;;4958489;28;20600;-88
2023/07/27 13:09:56;;;;;;;3.85;1.27;;;19.40;84.10;;;;;;4992114;28;20178;-89
2023/07/27 13:12:22;;;;;;;2.53;1.33;;;19.40;86.80;;;;;;4979396;28;20186;-90
2023/07/27 13:14:48;;;;;;;2.08;1.35;;;;;;;;;;4959203;28;20208;-91
2023/07/27 13:17:13;;;;;;;1.55;1.30;;;19.60;83.60;;;;;;4978802;28;20230;-90
2023/07/27 13:19:40;;;;;;;2.03;1.25;;;;;;;;;;4996300;28;20192;-92
2023/07/27 13:22:06;;;;;;;0.80;0.80;;;20.20;83.90;;;;;;4995942;28;20197;-88
2023/07/27 13:24:39;;;;;;;2.75;1.15;;;20.60;82.70;;;;;;4975208;28;20197;-90
2023/07/27 13:27:05;;;;;;;3.15;1.10;;;;;;;;;;4995533;28;20181;-89
2023/07/27 13:29:34;;;;;;;1.90;1.70;;;;;;;;;;4958416;28;20280;-89
2023/07/27 13:31:59;;;;;;;1.45;1.10;;;21.20;78.60;;;;;;4958202;28;20690;-89
2023/07/27 13:34:25;;;;;;;1.45;1.35;;;21.50;83.00;;;;;;4974107;28;20187;-89
2023/07/27 13:36:51;;;;;;;3.58;1.42;;;;;;;;;;4973847;28;20178;-89
2023/07/27 13:39:18;;;;;;;1.50;1.40;;;;;;;;;;4992206;28;20244;-88
2023/07/27 13:41:45;;;;;;;2.50;1.63;;;;;;;;;;4995636;28;20174;-94
2023/07/27 13:44:11;;;;;;;1.42;1.10;;;;;;;;;;4995050;28;20278;-91
2023/07/27 13:46:37;;;;;;;2.85;1.45;;;21.40;77.10;;;;;;4994660;28;20178;-91
2023/07/27 13:49:03;;;;;;;2.30;1.30;;;;;;;;;;4958764;28;20245;-91
2023/07/27 13:51:29;;;;;;;2.13;1.48;;;;;;;;;;4994776;28;20225;-91
2023/07/27 13:53:55;;;;;;;2.10;1.80;;;;;;;;;;4993159;28;20232;-90
2023/07/27 13:56:24;;;;;;;2.65;1.67;;;21.50;78.20;;;;;;4993534;28;20654;-89
2023/07/27 13:58:50;;;;;;;3.53;1.65;;;;;;;;;;4977182;28;20663;-88
2023/07/27 14:01:16;;;;;;;2.83;1.50;;;21.60;81.50;;;;;;4995634;28;20189;-90
2023/07/27 14:03:42;;;;;;;2.20;1.52;;;21.80;80.60;;;;;;4977329;28;20559;-90
2023/07/27 14:06:08;;;;;;;1.60;1.30;;;;;;;;;;4966729;28;20194;-92
2023/07/27 14:08:34;;;;;;;2.05;1.55;;;21.90;74.50;;;;;;5000221;28;20196;-88
2023/07/27 14:11:00;;;;;;;2.28;1.58;;;;;;;;;;4978275;28;20182;-90
2023/07/27 14:13:26;;;;;;;2.47;1.70;;;;;;;;;;4997266;28;20174;-91
2023/07/27 14:15:52;;;;;;;1.35;1.23;;;;;;;;;;4961808;28;20194;-90
2023/07/27 14:18:18;;;;;;;2.38;1.67;;;;;;;;;;4996172;28;20716;-92
2023/07/27 14:20:44;;;;;;;2.80;1.52;;;22.10;74.10;;;;;;4998809;28;20240;-92
2023/07/27 14:23:12;;;;;;;1.52;1.15;;;22.10;73.60;;;;;;4998735;28;20189;-92
2023/07/27 14:25:38;;;;;;;2.63;1.38;;;;;;;;;;5015870;28;20178;-90
2023/07/27 14:28:05;;;;;;;1.55;1.13;;;;;;;;;;5008215;28;20198;-90
2023/07/27 14:30:31;;;;;;;2.92;1.42;;;;;;;;;;5002279;28;20181;-90
2023/07/27 14:32:57;;;;;;;1.52;1.40;;;;;;;;;;5007175;28;20189;-86
2023/07/27 14:35:23;;;;;;;2.00;1.23;;;21.70;73.70;;;;;;5014487;28;20188;-87
2023/07/27 14:37:49;;;;;;;2.05;1.25;;;21.80;78.20;;;;;;4985181;28;20292;-89
2023/07/27 14:40:15;;;;;;;1.33;1.20;;;22.10;77.70;;;;;;4962968;28;20183;-89
2023/07/27 14:42:41;;;;;;;2.70;1.42;;;;;;;;;;4968632;28;20222;-89
2023/07/27 14:45:07;;;;;;;3.05;1.13;;;21.20;76.60;;;;;;4995927;28;20201;-90
2023/07/27 14:47:36;;;;;;;2.45;1.55;;;21.90;76.10;;;;;;4960535;28;20190;-90
2023/07/27 14:50:03;;;;;;;5.15;1.20;;;21.70;70.10;;;;;;4960828;28;20238;-87
2023/07/27 14:52:29;;;;;;;1.30;1.20;;;;;;;;;;4989701;28;20217;-87
2023/07/27 14:54:54;;;;;;;1.98;1.02;;;21.80;70.00;;;;;;4993944;28;20190;-88
2023/07/27 14:57:20;;;;;;;2.35;1.35;;;;;;;;;;4997053;28;20206;-92
2023/07/27 14:59:47;;;;;;;1.45;1.25;;;;;;;;;;4995057;28;20186;-86
2023/07/27 15:02:15;;;;;;;1.77;1.30;;;22.10;69.00;;;;;;4962389;28;20182;-87
2023/07/27 15:04:41;;;;;;;1.25;0.90;;;;;;;;;;4981396;28;20197;-88
2023/07/27 15:07:07;;;;;;;1.27;1.10;;;;;;;;;;4961200;28;20213;-88
2023/07/27 15:09:33;;;;;;;5.63;1.30;;;;;;;;;;4951036;28;20225;-86
2023/07/27 15:12:00;;;;;;;2.67;0.80;;;22.30;68.10;;;;;;4947483;28;20182;-89
2023/07/27 15:14:25;;;;;;;1.30;1.10;;;22.20;66.60;;;;;;4987678;28;20643;-86
2023/07/27 15:16:51;;;;;;;1.55;0.70;;;22.20;65.50;;;;;;4961785;28;20182;-89
2023/07/27 15:19:17;;;;;;;0.60;0.60;;;;;;;;;;4959229;28;20191;-90